Port Chester, NY (10573)

7:54 AM EST on December 18, 2014 (GMT -0500)
N1TKS/BYRAM, CT | Change Station
CLOSE
Current Station
Personal Weather Station
Location: BYRAM, CT
Elevation: 82 ft
Nearby Weather Stations

Elev 82 ft 41.01 °N, 73.65 °W | Updated 14 seconds ago

Mostly Cloudy
Mostly Cloudy
37.9 °F
Feels Like 29 °F
N
15.0
Wind Variable Wind from WNW
Gusts 15.0 mph

Today
High -- | Low -- °F
--% Chance of Precip.
Yesterday
High -- | Low -- °F
Precip. -- in
7:14 AM 4:28 PM
Waning Crescent, 14% visible
Pressure 29.93 in
Visibility 10.0 miles
Clouds Mostly Cloudy 3700 ft
Windchill 29 °F
Dew Point 26 °F
Humidity 63%
Rainfall 0.00 in
Snow Depth Not available.
UV 0 out of 12
Pollen .10 out of 12
Air Quality Not available.
Flu Activity Not available.
METAR KHPN 181156Z 29015G20KT 10SM BKN037 02/M06 A2991 RMK AO2 PK WND 28028/1117 SLP135 60000 T00221056 10044 20022 53017

More Conditions Fewer Conditions

Pressure 29.93 in
Visibility 10.0 miles
Clouds Mostly Cloudy 3700 ft
Windchill 29 °F
Dew Point 26 °F
Humidity 63%
Rainfall 0.00 in
Snow Depth Not available.
UV 0 out of 12
Pollen .10 out of 12
Air Quality Not available.
Flu Activity Not available.
METAR KHPN 181156Z 29015G20KT 10SM BKN037 02/M06 A2991 RMK AO2 PK WND 28028/1117 SLP135 60000 T00221056 10044 20022 53017

More Conditions Fewer Conditions

10-Day Weather Forecast

Almanac

Astronomy

Dec. 18, 2014 Rise Set
Actual Time
Civil Twilight
Nautical Twilight
Astronomical Twilight
Moon
Length of Visible Light
Length of Day
Tomorrow will be .
, % of the Moon is Illuminated

Today's Extremes

State Highs State Lows

Community

WunderPhotos

Upload Photos

1,778,923 photos uploaded!

WunderBlogs® & News

Nearby

Air Quality

  Air Quality AQ Index Pollutant
Not available.

Snow Depth

Station Depth Elevation

Earthquake Activity

City Distance Mag. Time & Date
Minimum magnitude displayed is 2.5.

Coastal Water Temperatures

Place Temperature

Nearby Weather Stations